createdAt,value
2019-04-20T00:00:01.667Z,5.50
2019-04-20T00:02:31.588Z,4.70
2019-04-20T00:05:01.405Z,5.17
2019-04-20T00:07:35.626Z,5.40
2019-04-20T00:10:10.965Z,5.17
2019-04-20T00:12:53.590Z,5.40
2019-04-20T00:15:09.202Z,5.20
2019-04-20T00:17:47.699Z,5.63
2019-04-20T00:20:16.010Z,5.30
2019-04-20T00:22:59.749Z,5.30
2019-04-20T00:25:54.399Z,5.27
2019-04-20T00:28:38.271Z,5.57
2019-04-20T00:31:05.554Z,5.50
2019-04-20T00:33:32.388Z,5.40
2019-04-20T00:35:51.232Z,5.70
2019-04-20T00:38:21.642Z,5.73
2019-04-20T00:40:59.417Z,5.33
2019-04-20T00:43:28.297Z,5.90
2019-04-20T00:46:04.838Z,5.27
2019-04-20T00:48:37.457Z,5.30
2019-04-20T00:51:17.359Z,5.57
2019-04-20T00:53:33.361Z,5.70
2019-04-20T00:56:03.423Z,5.40
2019-04-20T00:58:46.664Z,5.47
2019-04-20T01:01:25.098Z,5.13
2019-04-20T01:03:49.675Z,5.27
2019-04-20T01:06:28.925Z,5.37
2019-04-20T01:08:40.285Z,5.57
2019-04-20T01:11:10.279Z,5.40
2019-04-20T01:13:45.931Z,5.60
2019-04-20T01:16:25.302Z,5.03
2019-04-20T01:18:43.707Z,5.30
2019-04-20T01:21:18.638Z,5.50
2019-04-20T01:23:52.545Z,5.33
2019-04-20T01:26:19.699Z,5.93
2019-04-20T01:29:02.929Z,5.50
2019-04-20T01:31:30.482Z,5.00
2019-04-20T01:33:58.752Z,5.50
2019-04-20T01:36:43.145Z,5.03
2019-04-20T01:39:05.497Z,5.27
2019-04-20T01:41:24.495Z,4.70
2019-04-20T01:43:54.392Z,5.37
2019-04-20T01:46:27.197Z,5.17
2019-04-20T01:48:59.969Z,5.97
2019-04-20T01:51:33.689Z,5.27
2019-04-20T01:54:17.734Z,5.23
2019-04-20T01:56:44.655Z,5.20
2019-04-20T01:59:21.187Z,5.60
2019-04-20T02:02:01.773Z,4.93
2019-04-20T02:04:34.397Z,5.30
2019-04-20T02:07:03.020Z,5.70
2019-04-20T02:09:32.710Z,5.90
2019-04-20T02:12:10.327Z,6.00
2019-04-20T02:14:41.011Z,5.90
2019-04-20T02:17:18.501Z,6.93
2019-04-20T02:19:57.342Z,10.43
2019-04-20T02:22:27.789Z,14.53
2019-04-20T02:24:40.499Z,14.90
2019-04-20T02:27:10.403Z,12.40
2019-04-20T02:30:07.646Z,12.60
2019-04-20T02:32:53.243Z,12.10
2019-04-20T02:35:18.450Z,12.47
2019-04-20T02:38:03.536Z,11.00
2019-04-20T02:40:32.841Z,11.23
2019-04-20T02:42:57.991Z,10.03
2019-04-20T02:45:38.806Z,9.57
2019-04-20T02:50:40.089Z,7.63
2019-04-20T02:53:13.229Z,6.73
2019-04-20T02:55:33.925Z,5.63
2019-04-20T02:58:07.708Z,5.80
2019-04-20T03:00:35.584Z,5.30
2019-04-20T03:05:42.405Z,5.80
2019-04-20T03:08:22.136Z,5.70
2019-04-20T03:11:01.314Z,4.90
2019-04-20T03:13:26.968Z,5.60
2019-04-20T03:15:55.986Z,5.67
2019-04-20T03:18:26.586Z,5.70
2019-04-20T03:21:00.795Z,5.47
2019-04-20T03:23:35.339Z,5.03
2019-04-20T03:26:06.389Z,5.97
2019-04-20T03:28:51.548Z,5.77
2019-04-20T03:32:10.501Z,5.10
2019-04-20T03:34:41.366Z,4.77
2019-04-20T03:36:45.317Z,5.40
2019-04-20T03:39:07.022Z,5.53
2019-04-20T03:41:26.214Z,5.60
2019-04-20T03:43:55.109Z,6.00
2019-04-20T03:46:30.944Z,5.63
2019-04-20T03:49:09.472Z,5.43
2019-04-20T03:51:51.783Z,5.30
2019-04-20T03:54:29.809Z,4.97
2019-04-20T03:57:17.124Z,5.17
2019-04-20T03:59:56.263Z,5.60
2019-04-20T04:05:08.693Z,5.90
2019-04-20T04:07:32.368Z,6.17
2019-04-20T04:10:14.157Z,5.70
2019-04-20T04:13:09.527Z,5.63
2019-04-20T04:15:44.261Z,5.80
2019-04-20T04:18:21.880Z,5.80
2019-04-20T04:20:54.109Z,6.30
2019-04-20T04:23:38.072Z,6.17
2019-04-20T04:26:12.949Z,6.30
2019-04-20T04:28:37.301Z,5.60
2019-04-20T04:31:12.002Z,6.27
2019-04-20T04:36:10.442Z,5.90
2019-04-20T04:38:47.555Z,6.03
2019-04-20T04:43:44.126Z,6.23
2019-04-20T04:46:01.709Z,5.90
2019-04-20T04:48:35.550Z,5.60
2019-04-20T04:51:08.982Z,5.73
2019-04-20T04:53:44.371Z,5.90
2019-04-20T04:56:11.060Z,6.10
2019-04-20T04:58:36.877Z,6.40
2019-04-20T05:01:11.741Z,6.13
2019-04-20T05:04:02.847Z,6.37
2019-04-20T05:06:26.467Z,5.97
2019-04-20T05:08:48.917Z,6.37
2019-04-20T05:11:13.299Z,6.03
2019-04-20T05:13:50.559Z,5.90
2019-04-20T05:16:37.298Z,5.93
2019-04-20T05:19:11.909Z,6.23
2019-04-20T05:21:41.192Z,5.90
2019-04-20T05:24:25.593Z,5.33
2019-04-20T05:27:07.273Z,5.80
2019-04-20T05:29:23.643Z,5.97
2019-04-20T05:31:51.851Z,5.60
2019-04-20T05:34:38.780Z,5.90
2019-04-20T05:37:17.337Z,5.60
2019-04-20T05:39:44.459Z,6.30
2019-04-20T05:42:22.137Z,6.10
2019-04-20T05:44:45.823Z,5.73
2019-04-20T05:47:19.933Z,6.07
2019-04-20T05:49:48.424Z,6.03
2019-04-20T05:52:31.721Z,5.93
2019-04-20T05:54:53.059Z,6.03
2019-04-20T05:57:25.203Z,5.73
2019-04-20T06:00:02.201Z,6.10
2019-04-20T06:02:27.687Z,5.80
2019-04-20T06:07:29.637Z,6.30
2019-04-20T06:10:00.276Z,6.03
2019-04-20T06:12:31.856Z,6.20
2019-04-20T06:14:57.194Z,5.77
2019-04-20T06:17:52.939Z,6.17
2019-04-20T06:20:26.963Z,5.93
2019-04-20T06:23:09.493Z,6.00
2019-04-20T06:28:02.404Z,6.20
2019-04-20T06:30:32.180Z,5.47
2019-04-20T06:34:14.745Z,5.93
2019-04-20T06:36:29.312Z,5.77
2019-04-20T06:39:02.283Z,5.80
2019-04-20T06:41:43.479Z,5.80
2019-04-20T06:44:03.740Z,5.83
2019-04-20T06:46:29.181Z,5.90
2019-04-20T06:49:11.869Z,5.87
2019-04-20T06:51:53.178Z,5.93
2019-04-20T06:54:35.856Z,6.07
2019-04-20T06:57:07.214Z,5.73
2019-04-20T06:59:42.975Z,6.10
2019-04-20T07:02:18.684Z,6.30
2019-04-20T07:04:48.601Z,5.40
2019-04-20T07:07:14.133Z,5.63
2019-04-20T07:09:58.248Z,5.90
2019-04-20T07:12:12.525Z,6.13
2019-04-20T07:14:39.657Z,5.63
2019-04-20T07:17:32.945Z,5.80
2019-04-20T07:19:53.125Z,5.20
2019-04-20T07:23:11.531Z,5.70
2019-04-20T07:25:23.150Z,6.10
2019-04-20T07:27:49.317Z,5.40
2019-04-20T07:30:19.601Z,5.43
2019-04-20T07:35:25.028Z,5.90
2019-04-20T07:40:26.924Z,6.30
2019-04-20T07:42:58.980Z,5.83
2019-04-20T07:45:33.456Z,5.20
2019-04-20T07:48:06.145Z,5.40
2019-04-20T07:50:26.289Z,5.07
2019-04-20T07:52:58.629Z,5.23
2019-04-20T07:58:02.541Z,5.93
2019-04-20T08:00:53.252Z,5.87
2019-04-20T08:03:33.574Z,5.33
2019-04-20T08:05:55.303Z,5.13
2019-04-20T08:08:28.248Z,5.43
2019-04-20T08:11:10.304Z,5.70
2019-04-20T08:13:49.030Z,6.10
2019-04-20T08:16:20.472Z,5.73
2019-04-20T08:18:46.976Z,5.67
2019-04-20T08:21:20.896Z,5.77
2019-04-20T08:23:44.649Z,6.23
2019-04-20T08:26:05.493Z,5.70
2019-04-20T08:28:39.438Z,5.63
2019-04-20T08:31:21.895Z,5.97
2019-04-20T08:34:21.406Z,5.90
2019-04-20T08:36:43.135Z,5.90
2019-04-20T08:39:23.217Z,6.30
2019-04-20T08:41:45.289Z,6.23
2019-04-20T08:44:38.167Z,6.47
2019-04-20T08:46:54.806Z,6.30
2019-04-20T08:49:25.167Z,5.80
2019-04-20T08:51:55.631Z,6.17
2019-04-20T08:54:17.624Z,6.27
2019-04-20T08:56:39.325Z,6.43
2019-04-20T08:59:02.333Z,6.20
2019-04-20T09:01:35.835Z,6.00
2019-04-20T09:04:12.650Z,7.17
2019-04-20T09:06:49.553Z,6.27
2019-04-20T09:09:38.028Z,6.73
2019-04-20T09:12:18.002Z,7.30
2019-04-20T09:14:18.660Z,7.67
2019-04-20T09:16:59.280Z,6.57
2019-04-20T09:19:41.660Z,6.83
2019-04-20T09:22:24.285Z,7.23
2019-04-20T09:25:13.249Z,6.77
2019-04-20T09:27:26.858Z,6.90
2019-04-20T09:30:05.789Z,7.83
2019-04-20T09:32:36.106Z,7.00
2019-04-20T09:35:16.328Z,6.30
2019-04-20T09:37:45.916Z,6.50
2019-04-20T09:40:40.509Z,6.23
2019-04-20T09:42:48.459Z,6.03
2019-04-20T09:45:27.767Z,6.20
2019-04-20T09:47:54.467Z,5.90
2019-04-20T09:50:37.660Z,5.53
2019-04-20T09:53:09.006Z,5.77
2019-04-20T09:55:38.273Z,5.80
2019-04-20T09:58:10.056Z,5.90
2019-04-20T10:00:48.643Z,5.43
2019-04-20T10:03:04.400Z,5.83
2019-04-20T10:05:33.970Z,5.53
2019-04-20T10:08:07.960Z,6.13
2019-04-20T10:10:40.539Z,6.57
2019-04-20T10:13:07.357Z,6.70
2019-04-20T10:15:37.599Z,6.70
2019-04-20T10:18:07.898Z,5.87
2019-04-20T10:20:38.898Z,5.67
2019-04-20T10:23:08.946Z,5.47
2019-04-20T10:25:38.544Z,5.27
2019-04-20T10:28:09.233Z,4.83
2019-04-20T10:30:39.136Z,5.67
2019-04-20T10:33:09.890Z,5.77
2019-04-20T10:35:39.552Z,5.27
2019-04-20T10:38:13.790Z,5.33
2019-04-20T10:40:55.880Z,5.57
2019-04-20T10:43:14.706Z,5.27
2019-04-20T10:45:44.840Z,5.30
2019-04-20T10:48:15.119Z,5.40
2019-04-20T10:50:45.091Z,5.33
2019-04-20T10:53:14.875Z,5.47
2019-04-20T10:55:45.255Z,5.37
2019-04-20T10:58:15.588Z,5.30
2019-04-20T11:00:46.977Z,5.50
2019-04-20T11:03:17.820Z,5.30
2019-04-20T11:05:48.923Z,5.73
2019-04-20T11:08:18.619Z,5.87
2019-04-20T11:11:00.293Z,5.73
2019-04-20T11:13:19.459Z,4.70
2019-04-20T11:15:50.438Z,5.27
2019-04-20T11:18:20.140Z,5.77
2019-04-20T11:20:51.034Z,5.83
2019-04-20T11:23:20.761Z,5.67
2019-04-20T11:25:50.589Z,5.67
2019-04-20T11:28:20.176Z,5.50
2019-04-20T11:30:50.138Z,6.00
2019-04-20T11:33:20.346Z,5.50
2019-04-20T11:35:51.474Z,6.17
2019-04-20T11:38:22.007Z,6.07
2019-04-20T11:41:04.081Z,6.00
2019-04-20T11:43:23.945Z,5.53
2019-04-20T11:45:54.511Z,5.50
2019-04-20T11:48:25.448Z,6.83
2019-04-20T11:50:55.833Z,5.53
2019-04-20T11:53:26.885Z,6.10
2019-04-20T11:55:58.365Z,5.80
2019-04-20T11:58:28.153Z,5.70
2019-04-20T12:01:08.053Z,6.07
2019-04-20T12:03:41.511Z,5.90
2019-04-20T12:06:05.369Z,5.60
2019-04-20T12:08:37.666Z,5.80
2019-04-20T12:11:22.781Z,5.10
2019-04-20T12:13:40.595Z,6.47
2019-04-20T12:16:10.281Z,5.27
2019-04-20T12:18:39.839Z,5.43
2019-04-20T12:21:10.616Z,6.03
2019-04-20T12:23:40.400Z,5.40
2019-04-20T12:26:10.845Z,5.50
2019-04-20T12:28:40.442Z,5.43
2019-04-20T12:31:14.729Z,6.30
2019-04-20T12:33:42.264Z,5.60
2019-04-20T12:36:12.325Z,5.83
2019-04-20T12:38:43.370Z,5.57
2019-04-20T12:41:14.487Z,7.27
2019-04-20T12:43:45.581Z,5.23
2019-04-20T12:46:18.293Z,5.83
2019-04-20T12:48:47.467Z,5.87
2019-04-20T12:51:17.536Z,4.83
2019-04-20T12:53:48.464Z,5.27
2019-04-20T12:56:18.321Z,5.10
2019-04-20T12:58:49.416Z,5.00
2019-04-20T13:01:21.076Z,5.80
2019-04-20T13:03:50.352Z,5.70
2019-04-20T13:06:19.981Z,5.67
2019-04-20T13:08:53.793Z,4.60
2019-04-20T13:11:23.079Z,5.80
2019-04-20T13:14:08.339Z,5.23
2019-04-20T13:16:38.850Z,6.13
2019-04-20T13:19:08.942Z,5.57
2019-04-20T13:21:39.044Z,5.27
2019-04-20T13:24:09.293Z,5.50
2019-04-20T13:26:39.054Z,4.20
2019-04-20T13:29:08.851Z,5.07
2019-04-20T13:31:38.376Z,4.30
2019-04-20T13:34:08.018Z,5.13
2019-04-20T13:36:38.119Z,5.37
2019-04-20T13:39:08.456Z,4.70
2019-04-20T13:41:39.983Z,4.80
2019-04-20T13:44:09.719Z,5.07
2019-04-20T13:46:39.353Z,4.90
2019-04-20T13:49:09.396Z,5.33
2019-04-20T13:51:39.226Z,5.00
2019-04-20T13:54:14.999Z,4.40
2019-04-20T13:56:42.015Z,4.20
2019-04-20T13:59:25.821Z,4.40
2019-04-20T14:02:10.595Z,4.15
2019-04-20T14:04:54.965Z,3.98
2019-04-20T14:07:25.541Z,3.60
2019-04-20T14:09:55.407Z,3.90
2019-04-20T14:12:32.425Z,4.22
2019-04-20T14:14:57.305Z,3.70
2019-04-20T14:17:26.917Z,3.70
2019-04-20T14:19:57.125Z,3.52
2019-04-20T14:22:27.240Z,4.00
2019-04-20T14:24:57.335Z,3.90
2019-04-20T14:27:28.897Z,4.10
2019-04-20T14:29:59.223Z,4.50
2019-04-20T14:32:29.172Z,4.65
2019-04-20T14:34:58.868Z,4.67
2019-04-20T14:37:30.945Z,4.25
2019-04-20T14:40:00.595Z,4.60
2019-04-20T14:42:39.465Z,4.17
2019-04-20T14:45:01.899Z,3.98
2019-04-20T14:47:33.894Z,4.42
2019-04-20T14:50:05.404Z,4.70
2019-04-20T14:52:35.489Z,4.65
2019-04-20T14:55:07.832Z,4.35
2019-04-20T14:57:37.511Z,4.85
2019-04-20T15:00:27.827Z,5.15
2019-04-20T15:02:59.500Z,4.58
2019-04-20T15:05:29.237Z,5.40
2019-04-20T15:08:00.640Z,5.83
2019-04-20T15:10:31.098Z,5.50
2019-04-20T15:13:04.284Z,5.30
2019-04-20T15:15:32.564Z,4.75
2019-04-20T15:18:06.788Z,5.28
2019-04-20T15:20:39.451Z,5.22
2019-04-20T15:23:13.452Z,5.50
2019-04-20T15:25:44.379Z,5.58
2019-04-20T15:28:14.585Z,5.17
2019-04-20T15:30:44.501Z,5.10
2019-04-20T15:33:14.900Z,5.00
2019-04-20T15:35:44.551Z,5.80
2019-04-20T15:38:15.284Z,5.35
2019-04-20T15:40:44.967Z,5.30
2019-04-20T15:43:20.317Z,4.92
2019-04-20T15:45:47.416Z,5.20
2019-04-20T15:48:17.147Z,4.97
2019-04-20T15:50:47.811Z,5.20
2019-04-20T15:53:17.638Z,5.20
2019-04-20T15:55:49.215Z,4.95
2019-04-20T15:58:18.552Z,4.87
2019-04-20T16:00:48.126Z,4.28
2019-04-20T16:03:35.125Z,3.87
2019-04-20T16:06:11.461Z,3.72
2019-04-20T16:08:42.355Z,4.10
2019-04-20T16:11:13.307Z,3.92
2019-04-20T16:13:46.296Z,4.00
2019-04-20T16:16:14.384Z,3.70
2019-04-20T16:18:46.303Z,3.95
2019-04-20T16:21:20.928Z,4.40
2019-04-20T16:23:50.706Z,5.47
2019-04-20T16:26:22.060Z,4.78
2019-04-20T16:28:53.472Z,5.00
2019-04-20T16:31:24.554Z,8.50
2019-04-20T16:33:56.945Z,6.13
2019-04-20T16:36:26.174Z,5.83
2019-04-20T16:38:55.793Z,4.50
2019-04-20T16:41:26.438Z,4.00
2019-04-20T16:43:57.410Z,4.00
2019-04-20T16:46:28.080Z,4.30
2019-04-20T16:48:58.987Z,4.50
2019-04-20T16:51:29.158Z,4.27
2019-04-20T16:53:59.537Z,4.10
2019-04-20T16:56:29.210Z,4.27
2019-04-20T16:59:05.760Z,4.10
2019-04-20T17:01:30.087Z,5.07
2019-04-20T17:04:06.980Z,4.40
2019-04-20T17:06:32.029Z,4.03
2019-04-20T17:09:02.892Z,4.50
2019-04-20T17:11:33.968Z,4.70
2019-04-20T17:14:03.851Z,4.30
2019-04-20T17:16:35.581Z,4.50
2019-04-20T17:19:05.908Z,4.43
2019-04-20T17:21:37.252Z,4.13
2019-04-20T17:24:07.363Z,5.23
2019-04-20T17:26:38.966Z,5.33
2019-04-20T17:29:10.692Z,4.80
2019-04-20T17:31:43.033Z,4.63
2019-04-20T17:34:31.522Z,4.90
2019-04-20T17:36:44.503Z,4.73
2019-04-20T17:39:25.824Z,4.93
2019-04-20T17:42:03.451Z,4.47
2019-04-20T17:44:34.512Z,4.47
2019-04-20T17:47:00.435Z,4.20
2019-04-20T17:49:34.164Z,4.43
2019-04-20T17:52:17.648Z,4.50
2019-04-20T17:54:29.390Z,4.70
2019-04-20T17:57:00.279Z,4.20
2019-04-20T17:59:30.390Z,4.83
2019-04-20T18:02:36.751Z,5.20
2019-04-20T18:05:20.416Z,4.80
2019-04-20T18:07:44.904Z,5.03
2019-04-20T18:10:17.414Z,4.97
2019-04-20T18:12:37.500Z,4.63
2019-04-20T18:15:23.111Z,5.00
2019-04-20T18:17:56.233Z,5.47
2019-04-20T18:20:10.039Z,7.63
2019-04-20T18:22:44.078Z,7.00
2019-04-20T18:25:31.354Z,5.80
2019-04-20T18:28:01.184Z,6.33
2019-04-20T18:30:40.688Z,6.57
2019-04-20T18:33:00.947Z,6.13
2019-04-20T18:35:34.779Z,6.77
2019-04-20T18:38:07.681Z,6.00
2019-04-20T18:40:41.761Z,5.33
2019-04-20T18:43:11.125Z,7.23
2019-04-20T18:45:58.204Z,8.57
2019-04-20T18:48:33.976Z,13.90
2019-04-20T18:50:42.219Z,7.97
2019-04-20T18:53:18.648Z,8.10
2019-04-20T18:55:49.587Z,7.50
2019-04-20T18:58:15.170Z,6.57
2019-04-20T19:00:51.150Z,5.87
2019-04-20T19:03:25.249Z,5.97
2019-04-20T19:05:49.538Z,14.10
2019-04-20T19:08:32.374Z,11.17
2019-04-20T19:10:57.546Z,10.90
2019-04-20T19:13:36.275Z,9.07
2019-04-20T19:16:15.289Z,9.97
2019-04-20T19:18:50.643Z,8.27
2019-04-20T19:21:09.155Z,9.30
2019-04-20T19:23:48.559Z,8.13
2019-04-20T19:26:16.139Z,7.77
2019-04-20T19:28:48.126Z,8.17
2019-04-20T19:31:30.778Z,8.27
2019-04-20T19:34:06.214Z,7.93
2019-04-20T19:36:28.105Z,8.07
2019-04-20T19:39:01.488Z,8.13
2019-04-20T19:41:34.052Z,8.77
2019-04-20T19:44:06.430Z,8.87
2019-04-20T19:46:53.623Z,9.50
2019-04-20T19:49:01.323Z,8.93
2019-04-20T19:51:49.341Z,7.77
2019-04-20T19:54:22.706Z,8.03
2019-04-20T19:56:42.618Z,8.50
2019-04-20T19:59:14.288Z,8.40
2019-04-20T20:01:29.490Z,7.10
2019-04-20T20:04:04.242Z,8.20
2019-04-20T20:06:40.709Z,6.60
2019-04-20T20:09:06.798Z,6.83
2019-04-20T20:11:38.485Z,7.30
2019-04-20T20:14:08.232Z,7.57
2019-04-20T20:16:57.483Z,7.10
2019-04-20T20:19:14.209Z,7.13
2019-04-20T20:21:55.483Z,7.93
2019-04-20T20:24:13.966Z,8.53
2019-04-20T20:26:50.009Z,8.17
2019-04-20T20:29:22.828Z,7.33
2019-04-20T20:32:03.355Z,7.53
2019-04-20T20:34:26.684Z,7.60
2019-04-20T20:36:54.615Z,8.03
2019-04-20T20:39:24.235Z,7.63
2019-04-20T20:42:01.584Z,7.70
2019-04-20T20:44:32.442Z,7.87
2019-04-20T20:47:03.455Z,7.63
2019-04-20T20:49:49.735Z,8.70
2019-04-20T20:52:12.334Z,7.97
2019-04-20T20:54:40.492Z,7.97
2019-04-20T20:57:05.667Z,7.97
2019-04-20T20:59:41.536Z,8.30
2019-04-20T21:02:08.828Z,8.37
2019-04-20T21:04:33.353Z,8.63
2019-04-20T21:07:03.030Z,8.17
2019-04-20T21:09:33.458Z,8.40
2019-04-20T21:12:08.458Z,8.20
2019-04-20T21:14:38.351Z,7.60
2019-04-20T21:17:13.164Z,7.30
2019-04-20T21:19:53.385Z,7.20
2019-04-20T21:22:18.499Z,7.17
2019-04-20T21:24:47.077Z,7.50
2019-04-20T21:27:19.818Z,6.70
2019-04-20T21:29:51.464Z,6.93
2019-04-20T21:32:21.204Z,6.77
2019-04-20T21:34:55.609Z,7.03
2019-04-20T21:37:24.922Z,6.97
2019-04-20T21:39:59.045Z,7.03
2019-04-20T21:42:26.703Z,7.17
2019-04-20T21:45:05.698Z,7.30
2019-04-20T21:47:31.431Z,7.43
2019-04-20T21:50:17.139Z,7.37
2019-04-20T21:52:39.243Z,7.47
2019-04-20T21:55:01.424Z,7.03
2019-04-20T21:57:42.077Z,7.40
2019-04-20T22:00:19.422Z,7.30
2019-04-20T22:02:48.419Z,7.00
2019-04-20T22:05:13.575Z,7.40
2019-04-20T22:07:44.267Z,7.53
2019-04-20T22:10:19.020Z,7.60
2019-04-20T22:12:53.559Z,7.43
2019-04-20T22:15:24.724Z,7.33
2019-04-20T22:17:48.585Z,7.00
2019-04-20T22:20:28.791Z,6.63
2019-04-20T22:23:03.014Z,6.80
2019-04-20T22:25:39.154Z,6.90
2019-04-20T22:27:52.084Z,7.17
2019-04-20T22:30:22.090Z,7.00
2019-04-20T22:32:55.295Z,7.10
2019-04-20T22:35:26.053Z,7.53
2019-04-20T22:38:07.007Z,7.43
2019-04-20T22:40:36.426Z,7.37
2019-04-20T22:43:06.414Z,7.27
2019-04-20T22:45:39.732Z,7.13
2019-04-20T22:48:11.034Z,7.47
2019-04-20T22:50:51.316Z,6.83
2019-04-20T22:53:26.096Z,7.30
2019-04-20T22:56:04.521Z,7.87
2019-04-20T22:58:27.435Z,7.37
2019-04-20T23:00:51.946Z,6.90
2019-04-20T23:03:16.815Z,6.77
2019-04-20T23:05:46.964Z,7.77
2019-04-20T23:08:17.013Z,7.67
2019-04-20T23:10:48.129Z,7.07
2019-04-20T23:13:22.089Z,7.33
2019-04-20T23:15:55.394Z,7.30
2019-04-20T23:18:22.319Z,7.70
2019-04-20T23:20:54.564Z,6.73
2019-04-20T23:23:27.010Z,7.53
2019-04-20T23:25:54.649Z,7.60
2019-04-20T23:28:24.518Z,7.57
2019-04-20T23:31:02.499Z,7.43
2019-04-20T23:33:27.638Z,8.23
2019-04-20T23:35:59.865Z,8.00
2019-04-20T23:38:28.696Z,8.27
2019-04-20T23:40:59.550Z,8.40
2019-04-20T23:43:37.570Z,7.97
2019-04-20T23:46:26.454Z,7.80
2019-04-20T23:48:56.572Z,8.30
2019-04-20T23:51:54.180Z,8.13
2019-04-20T23:54:07.804Z,8.27
2019-04-20T23:56:29.937Z,8.37
2019-04-20T23:58:59.884Z,8.27
